createdAt,value
2022-12-15T00:02:38.916Z,-2.48
2022-12-15T00:07:58.928Z,-2.59
2022-12-15T00:13:18.990Z,-2.65
2022-12-15T00:18:39.220Z,-2.63
2022-12-15T00:23:59.176Z,-2.71
2022-12-15T00:29:19.411Z,-2.59
2022-12-15T00:34:39.133Z,-2.55
2022-12-15T00:39:40.629Z,-2.48
2022-12-15T00:44:42.049Z,-2.44
2022-12-15T00:50:01.852Z,-2.59
2022-12-15T00:55:23.507Z,-2.43
2022-12-15T01:00:43.661Z,-2.39
2022-12-15T01:06:03.775Z,-2.38
2022-12-15T01:11:23.823Z,-2.61
2022-12-15T01:16:44.143Z,-2.60
2022-12-15T01:21:45.639Z,-2.77
2022-12-15T01:26:47.112Z,-2.51
2022-12-15T01:31:49.918Z,-2.41
2022-12-15T01:36:51.826Z,-2.39
2022-12-15T01:41:53.228Z,-2.42
2022-12-15T01:46:56.266Z,-2.36
2022-12-15T01:52:04.502Z,-2.39
2022-12-15T01:57:24.083Z,-2.45
2022-12-15T02:02:27.266Z,-2.20
2022-12-15T02:07:28.893Z,-2.22
2022-12-15T02:13:01.488Z,-2.13
2022-12-15T02:18:28.062Z,-2.01
2022-12-15T02:24:00.372Z,-2.02
2022-12-15T02:29:26.420Z,-1.93
2022-12-15T02:34:43.306Z,-1.82
2022-12-15T02:39:45.588Z,-1.99
2022-12-15T02:44:54.277Z,-2.08
2022-12-15T02:50:27.996Z,-1.99
2022-12-15T02:55:50.205Z,-2.17
2022-12-15T03:01:01.802Z,-2.03
2022-12-15T03:06:03.869Z,-1.96
2022-12-15T03:11:05.454Z,-1.83
2022-12-15T03:16:07.059Z,-1.66
2022-12-15T03:21:08.530Z,-1.69
2022-12-15T03:26:10.005Z,-1.65
2022-12-15T03:31:11.431Z,-1.57
2022-12-15T03:36:12.877Z,-1.57
2022-12-15T03:41:14.339Z,-1.60
2022-12-15T03:46:15.788Z,-1.43
2022-12-15T03:51:17.216Z,-1.47
2022-12-15T03:56:18.677Z,-1.50
2022-12-15T04:01:34.235Z,-1.52
2022-12-15T04:06:35.819Z,-1.57
2022-12-15T04:11:37.291Z,-1.52
2022-12-15T04:16:38.791Z,-1.45
2022-12-15T04:21:40.241Z,-1.49
2022-12-15T04:27:00.350Z,-1.33
2022-12-15T04:32:20.347Z,-1.21
2022-12-15T04:37:40.303Z,-1.11
2022-12-15T04:43:03.775Z,-1.18
2022-12-15T04:48:25.311Z,-1.20
2022-12-15T04:53:45.440Z,-1.25
2022-12-15T04:59:06.725Z,-1.11
2022-12-15T05:04:26.865Z,-1.08
2022-12-15T05:09:46.712Z,-1.10
2022-12-15T05:15:06.852Z,-1.12
2022-12-15T05:20:27.504Z,-0.98
2022-12-15T05:25:47.415Z,-0.99
2022-12-15T05:31:07.641Z,-0.88
2022-12-15T05:36:09.341Z,-0.91
2022-12-15T05:41:10.753Z,-1.11
2022-12-15T05:46:13.537Z,-0.97
2022-12-15T05:51:15.128Z,-0.91
2022-12-15T05:56:16.599Z,-0.76
2022-12-15T06:01:19.452Z,-0.66
2022-12-15T06:06:21.110Z,-0.68
2022-12-15T06:11:22.751Z,-0.60
2022-12-15T06:16:25.750Z,-0.90
2022-12-15T06:21:35.298Z,-0.79
2022-12-15T06:26:39.275Z,-1.00
2022-12-15T06:31:41.537Z,-0.79
2022-12-15T06:36:44.074Z,-0.64
2022-12-15T06:41:45.614Z,-0.65
2022-12-15T06:46:47.155Z,-0.65
2022-12-15T06:51:50.324Z,-0.73
2022-12-15T06:56:51.843Z,-0.88
2022-12-15T07:01:53.382Z,-0.95
2022-12-15T07:06:56.819Z,-0.76
2022-12-15T07:11:58.247Z,-0.65
2022-12-15T07:16:59.690Z,-0.78
2022-12-15T07:22:01.485Z,-0.59
2022-12-15T07:27:02.944Z,-0.61
2022-12-15T07:32:04.621Z,-0.57
2022-12-15T07:37:06.079Z,-0.70
2022-12-15T07:42:07.492Z,-0.74
2022-12-15T07:47:08.942Z,-0.56
2022-12-15T07:52:10.376Z,-0.36
2022-12-15T07:57:11.890Z,-0.30
2022-12-15T08:02:14.172Z,-0.17
2022-12-15T08:07:15.664Z,-0.16
2022-12-15T08:12:17.173Z,-0.32
2022-12-15T08:17:18.636Z,-0.35
2022-12-15T08:22:20.126Z,-0.04
2022-12-15T08:27:24.121Z,-0.20
2022-12-15T08:32:25.557Z,0.01
2022-12-15T08:37:27.029Z,0.13
2022-12-15T08:42:33.760Z,0.12
2022-12-15T08:47:35.233Z,-0.18
2022-12-15T08:52:55.229Z,-0.20
2022-12-15T08:58:02.909Z,0.27
2022-12-15T09:03:04.720Z,0.35
2022-12-15T09:08:06.896Z,0.36
2022-12-15T09:13:08.548Z,0.45
2022-12-15T09:18:09.992Z,0.48
2022-12-15T09:23:11.418Z,0.47
2022-12-15T09:28:14.003Z,0.35
2022-12-15T09:33:15.408Z,0.29
2022-12-15T09:38:16.916Z,0.66
2022-12-15T09:43:46.452Z,0.90
2022-12-15T09:48:48.009Z,0.71
2022-12-15T09:53:57.287Z,0.42
2022-12-15T09:59:05.772Z,0.38
2022-12-15T10:04:18.835Z,0.27
2022-12-15T10:09:27.534Z,0.31
2022-12-15T10:14:44.685Z,0.41
2022-12-15T10:19:55.606Z,0.92
2022-12-15T10:25:10.814Z,1.13
2022-12-15T10:30:14.052Z,1.42
2022-12-15T10:35:18.594Z,1.65
2022-12-15T10:40:42.543Z,1.85
2022-12-15T10:45:44.075Z,1.55
2022-12-15T10:50:46.044Z,1.34
2022-12-15T10:56:01.259Z,1.14
2022-12-15T11:01:15.226Z,0.68
2022-12-15T11:06:21.549Z,0.67
2022-12-15T11:11:48.490Z,0.91
2022-12-15T11:16:55.118Z,1.28
2022-12-15T11:22:02.908Z,1.73
2022-12-15T11:27:14.168Z,1.98
2022-12-15T11:32:20.679Z,2.21
2022-12-15T11:37:39.277Z,2.11
2022-12-15T11:43:02.622Z,1.98
2022-12-15T11:48:23.587Z,1.90
2022-12-15T11:53:24.981Z,1.51
2022-12-15T11:58:54.060Z,1.28
2022-12-15T12:04:15.732Z,0.93
2022-12-15T12:09:29.285Z,1.04
2022-12-15T12:14:53.467Z,1.18
2022-12-15T12:20:07.807Z,1.40
2022-12-15T12:25:19.089Z,1.51
2022-12-15T12:30:24.137Z,1.46
2022-12-15T12:35:46.243Z,1.35
2022-12-15T12:41:04.969Z,1.62
2022-12-15T12:46:15.207Z,1.72
2022-12-15T12:51:24.751Z,1.73
2022-12-15T12:56:29.163Z,1.69
2022-12-15T13:01:32.704Z,1.65
2022-12-15T13:06:34.775Z,1.75
2022-12-15T13:12:14.897Z,1.73
2022-12-15T13:17:29.461Z,1.88
2022-12-15T13:22:36.360Z,1.89
2022-12-15T13:27:40.721Z,1.99
2022-12-15T13:32:46.106Z,1.79
2022-12-15T13:37:59.141Z,1.48
2022-12-15T13:43:03.510Z,1.23
2022-12-15T13:48:18.234Z,1.18
2022-12-15T13:53:23.331Z,1.01
2022-12-15T13:58:25.798Z,1.04
2022-12-15T14:03:27.375Z,0.80
2022-12-15T14:08:31.001Z,0.54
2022-12-15T14:13:36.995Z,0.48
2022-12-15T14:18:41.855Z,0.31
2022-12-15T14:24:19.046Z,0.07
2022-12-15T14:29:06.851Z,-0.08
2022-12-15T14:34:18.537Z,-0.37
2022-12-15T14:39:33.576Z,-0.45
2022-12-15T14:44:48.116Z,-0.54
2022-12-15T14:49:51.644Z,-0.51
2022-12-15T14:54:59.944Z,-0.57
2022-12-15T15:00:23.535Z,-0.72
2022-12-15T15:05:27.416Z,-0.88
2022-12-15T15:10:29.985Z,-1.12
2022-12-15T15:15:31.464Z,-1.24
2022-12-15T15:20:37.845Z,-1.40
2022-12-15T15:25:41.577Z,-1.41
2022-12-15T15:30:59.313Z,-1.40
2022-12-15T15:36:02.663Z,-1.48
2022-12-15T15:41:26.244Z,-1.48
2022-12-15T15:46:36.862Z,-1.60
2022-12-15T15:51:38.337Z,-1.53
2022-12-15T15:56:39.762Z,-1.49
2022-12-15T16:01:41.361Z,-1.54
2022-12-15T16:06:47.244Z,-1.51
2022-12-15T16:11:49.041Z,-1.54
2022-12-15T16:16:50.522Z,-1.54
2022-12-15T16:21:52.237Z,-1.65
2022-12-15T16:26:53.679Z,-1.78
2022-12-15T16:31:55.549Z,-2.02
2022-12-15T16:36:57.134Z,-2.26
2022-12-15T16:41:59.041Z,-2.33
2022-12-15T16:47:00.540Z,-2.58
2022-12-15T16:52:02.083Z,-2.42
2022-12-15T16:57:05.533Z,-2.52
2022-12-15T17:02:27.736Z,-2.66
2022-12-15T17:07:29.552Z,-2.88
2022-12-15T17:12:31.436Z,-2.93
2022-12-15T17:17:32.883Z,-2.96
2022-12-15T17:22:34.577Z,-2.87
2022-12-15T17:27:36.038Z,-2.80
2022-12-15T17:32:37.460Z,-2.83
2022-12-15T17:37:40.277Z,-2.73
2022-12-15T17:42:41.715Z,-2.63
2022-12-15T17:47:43.419Z,-2.61
2022-12-15T17:52:47.843Z,-2.57
2022-12-15T17:57:50.105Z,-2.47
2022-12-15T18:02:56.750Z,-2.49
2022-12-15T18:08:01.389Z,-2.44
2022-12-15T18:13:03.235Z,-2.42
2022-12-15T18:18:04.673Z,-2.43
2022-12-15T18:23:13.895Z,-2.52
2022-12-15T18:28:21.994Z,-2.62
2022-12-15T18:33:23.562Z,-2.66
2022-12-15T18:38:27.240Z,-2.76
2022-12-15T18:43:32.168Z,-2.72
2022-12-15T18:48:37.615Z,-2.77
2022-12-15T18:53:41.057Z,-2.83
2022-12-15T18:58:42.502Z,-2.84
2022-12-15T19:03:43.983Z,-2.88
2022-12-15T19:08:45.931Z,-2.88
2022-12-15T19:13:47.359Z,-2.93
2022-12-15T19:19:07.563Z,-2.95
2022-12-15T19:24:13.489Z,-2.93
2022-12-15T19:29:21.235Z,-2.85
2022-12-15T19:34:22.676Z,-2.95
2022-12-15T19:39:24.600Z,-3.03
2022-12-15T19:44:26.265Z,-3.14
2022-12-15T19:49:27.694Z,-3.09
2022-12-15T19:54:30.698Z,-3.01
2022-12-15T19:59:32.172Z,-3.02
2022-12-15T20:04:34.065Z,-2.93
2022-12-15T20:09:35.479Z,-2.87
2022-12-15T20:14:37.093Z,-2.93
2022-12-15T20:19:38.615Z,-2.91
2022-12-15T20:24:40.628Z,-2.89
2022-12-15T20:29:42.577Z,-2.84
2022-12-15T20:34:44.418Z,-2.89
2022-12-15T20:39:45.814Z,-2.83
2022-12-15T20:44:47.865Z,-2.87
2022-12-15T20:49:54.735Z,-2.87
2022-12-15T20:54:56.370Z,-2.88
2022-12-15T20:59:57.820Z,-2.88
2022-12-15T21:04:59.975Z,-2.81
2022-12-15T21:10:01.412Z,-2.85
2022-12-15T21:15:02.948Z,-2.92
2022-12-15T21:20:04.789Z,-2.91
2022-12-15T21:25:19.875Z,-2.96
2022-12-15T21:30:22.931Z,-2.81
2022-12-15T21:35:30.103Z,-2.82
2022-12-15T21:40:33.382Z,-2.84
2022-12-15T21:45:34.797Z,-2.85
2022-12-15T21:50:37.879Z,-2.76
2022-12-15T21:55:41.063Z,-2.81
2022-12-15T22:00:45.781Z,-2.83
2022-12-15T22:05:47.380Z,-2.70
2022-12-15T22:10:51.062Z,-2.75
2022-12-15T22:15:54.707Z,-2.70
2022-12-15T22:20:56.247Z,-2.74
2022-12-15T22:25:57.755Z,-2.60
2022-12-15T22:31:03.739Z,-2.68
2022-12-15T22:36:05.396Z,-2.63
2022-12-15T22:41:18.275Z,-2.70
2022-12-15T22:46:22.034Z,-2.72
2022-12-15T22:51:23.601Z,-2.72
2022-12-15T22:56:30.636Z,-2.78
2022-12-15T23:01:32.221Z,-2.72
2022-12-15T23:06:33.834Z,-2.68
2022-12-15T23:11:37.855Z,-2.75
2022-12-15T23:16:40.009Z,-2.75
2022-12-15T23:21:41.409Z,-2.80
2022-12-15T23:26:42.836Z,-2.82
2022-12-15T23:31:44.471Z,-2.85
2022-12-15T23:36:46.243Z,-2.84
2022-12-15T23:41:47.681Z,-2.76
2022-12-15T23:46:49.152Z,-2.70
2022-12-15T23:51:50.582Z,-2.67
2022-12-15T23:56:52.049Z,-2.80
